Time;durP1;ratioP1;P1;durP2;ratioP2;P2;SDS_P1;SDS_P2;PMS_P1;PMS_P2;Temp;Humidity;BMP_temperature;BMP_pressure;BME280_temperature;BME280_humidity;BME280_pressure;Samples;Min_cycle;Max_cycle;Signal;HPM_P1;HPM_P2
2023/09/26 00:00:43;;;;;;;10.73;6.72;;;;;;;20.17;72.77;99898.91;4359789;32;33806;-85
2023/09/26 00:03:12;;;;;;;11.12;6.30;;;;;;;20.13;72.87;99900.72;4356288;32;34016;-83
2023/09/26 00:05:39;;;;;;;13.60;6.75;;;;;;;20.14;72.31;99901.56;4345298;32;35664;-84
2023/09/26 00:08:08;;;;;;;11.95;6.72;;;;;;;20.01;72.97;99895.63;4345922;32;33501;-85
2023/09/26 00:10:48;;;;;;;18.70;7.62;;;;;;;20.12;72.16;99903.38;4364020;32;33316;-84
2023/09/26 00:13:15;;;;;;;12.48;7.05;;;;;;;20.09;72.44;99900.78;4364939;32;33921;-82
2023/09/26 00:15:43;;;;;;;13.98;7.20;;;;;;;20.12;72.25;99898.12;4346529;32;34165;-84
2023/09/26 00:18:11;;;;;;;13.15;6.78;;;;;;;20.02;72.53;99901.75;4351973;32;33819;-84
2023/09/26 00:20:39;;;;;;;13.73;6.78;;;;;;;19.83;72.83;99904.63;4345988;32;34211;-83
2023/09/26 00:23:07;;;;;;;16.85;7.28;;;;;;;19.89;72.61;99904.56;4345142;32;34654;-84
2023/09/26 00:25:35;;;;;;;10.15;6.70;;;;;;;19.81;72.93;99903.81;4357664;32;34125;-84
2023/09/26 00:28:03;;;;;;;13.45;7.10;;;;;;;19.78;73.31;99897.72;4355873;32;35107;-83
2023/09/26 00:30:31;;;;;;;13.55;8.20;;;;;;;19.87;73.07;99897.56;4353821;32;33103;-83
2023/09/26 00:32:59;;;;;;;12.57;6.80;;;;;;;19.78;73.37;99902.97;4349130;32;34855;-85
2023/09/26 00:35:45;;;;;;;12.23;7.60;;;;;;;19.93;72.79;99903.63;4359297;32;34927;-85
2023/09/26 00:38:13;;;;;;;14.87;7.12;;;;;;;19.89;72.69;99899.31;4358956;32;34104;-83
2023/09/26 00:40:41;;;;;;;11.12;6.90;;;;;;;19.92;72.41;99896.59;4357926;32;33700;-84
2023/09/26 00:43:09;;;;;;;16.83;7.65;;;;;;;19.89;72.62;99904.56;4359232;32;33932;-83
2023/09/26 00:45:36;;;;;;;12.10;6.95;;;;;;;19.96;72.18;99904.47;4358276;32;33760;-84
2023/09/26 00:48:05;;;;;;;10.70;7.03;;;;;;;19.98;72.00;99892.16;4363054;32;34776;-82
2023/09/26 00:50:33;;;;;;;13.27;7.62;;;;;;;20.03;71.92;99895.59;4358263;32;33724;-84
2023/09/26 00:53:01;;;;;;;11.40;7.03;;;;;;;20.06;71.70;99883.25;4358750;32;34038;-85
2023/09/26 00:55:28;;;;;;;14.82;6.78;;;;;;;20.13;71.36;99894.59;4359167;32;33858;-82
2023/09/26 00:57:56;;;;;;;10.90;7.35;;;;;;;20.16;70.81;99889.28;4358223;32;34303;-84
2023/09/26 01:00:25;;;;;;;15.30;7.35;;;;;;;20.14;71.06;99894.53;4359195;32;33553;-84
2023/09/26 01:02:52;;;;;;;13.02;7.15;;;;;;;20.03;71.40;99888.56;4358744;32;33796;-84
2023/09/26 01:05:21;;;;;;;12.88;8.05;;;;;;;20.06;71.22;99887.66;4370032;32;34403;-82
2023/09/26 01:07:49;;;;;;;12.37;8.02;;;;;;;19.97;71.75;99887.81;4354786;32;34183;-85
2023/09/26 01:10:17;;;;;;;13.20;8.20;;;;;;;19.97;71.69;99887.81;4369369;32;33475;-83
2023/09/26 01:12:44;;;;;;;13.27;7.82;;;;;;;19.82;72.67;99887.13;4359190;32;33869;-84
2023/09/26 01:15:12;;;;;;;12.57;8.43;;;;;;;20.00;71.74;99887.75;4354126;32;34141;-84
2023/09/26 01:17:40;;;;;;;14.27;8.77;;;;;;;20.00;71.62;99885.09;4346600;32;34061;-84
2023/09/26 01:20:16;;;;;;;13.95;7.55;;;;;;;19.76;72.73;99895.06;4345125;32;33780;-83
2023/09/26 01:22:47;;;;;;;15.23;8.23;;;;;;;19.93;71.93;99893.09;4346327;33;34232;-85
2023/09/26 01:25:15;;;;;;;13.85;8.45;;;;;;;20.02;71.60;99891.22;4346301;33;34866;-84
2023/09/26 01:27:43;;;;;;;10.63;7.15;;;;;;;19.83;72.02;99891.47;4351748;32;33988;-85
2023/09/26 01:30:12;;;;;;;11.65;7.62;;;;;;;19.97;71.42;99888.66;4361071;32;34495;-83
2023/09/26 01:32:39;;;;;;;12.57;8.05;;;;;;;20.09;71.04;99887.63;4360520;32;33960;-84
2023/09/26 01:35:07;;;;;;;12.45;7.60;;;;;;;19.92;71.75;99891.34;4361015;32;35130;-85
2023/09/26 01:37:35;;;;;;;10.95;8.63;;;;;;;19.97;71.68;99872.88;4360072;32;34459;-85
2023/09/26 01:40:03;;;;;;;14.20;7.85;;;;;;;19.93;71.66;99877.31;4360792;32;33959;-85
2023/09/26 01:42:31;;;;;;;12.27;7.95;;;;;;;19.93;70.99;99879.94;4360972;32;34697;-83
2023/09/26 01:44:58;;;;;;;15.13;7.75;;;;;;;20.02;70.83;99889.47;4355616;32;35085;-85
2023/09/26 01:47:35;;;;;;;11.63;7.95;;;;;;;19.96;71.08;99891.31;4346747;32;34235;-85
2023/09/26 01:50:03;;;;;;;10.60;7.75;;;;;;;19.99;70.71;99892.13;4359444;32;33228;-83
2023/09/26 01:52:32;;;;;;;11.12;8.10;;;;;;;20.09;70.03;99892.88;4360925;32;33778;-84
2023/09/26 01:54:59;;;;;;;10.93;7.60;;;;;;;19.88;70.78;99889.66;4353456;32;33780;-85
2023/09/26 01:57:27;;;;;;;15.35;7.80;;;;;;;19.77;71.50;99885.41;4345833;32;34471;-86
2023/09/26 01:59:55;;;;;;;14.35;8.00;;;;;;;19.80;71.32;99886.25;4355872;32;34323;-85
2023/09/26 02:02:22;;;;;;;14.68;8.77;;;;;;;19.91;70.78;99889.59;4360547;32;33839;-85
2023/09/26 02:04:50;;;;;;;14.27;9.10;;;;;;;19.88;71.20;99894.03;4355262;32;34820;-84
2023/09/26 02:07:18;;;;;;;14.35;8.93;;;;;;;19.78;72.28;99895.94;4363112;32;33892;-84
2023/09/26 02:09:45;;;;;;;16.40;9.82;;;;;;;19.70;72.88;99884.66;4375754;32;33762;-85
2023/09/26 02:12:13;;;;;;;14.05;9.00;;;;;;;19.75;72.72;99889.84;4358102;32;34769;-84
2023/09/26 02:14:40;;;;;;;17.12;9.40;;;;;;;19.84;73.28;99887.09;4360511;32;34936;-84
2023/09/26 02:17:10;;;;;;;13.93;8.85;;;;;;;19.82;73.64;99883.62;4357798;32;34150;-84
2023/09/26 02:19:39;;;;;;;15.30;9.60;;;;;;;19.85;72.97;99887.09;4345492;32;33662;-84
2023/09/26 02:22:07;;;;;;;16.80;9.00;;;;;;;19.65;74.55;99889.09;4350574;32;33920;-85
2023/09/26 02:24:34;;;;;;;15.32;9.65;;;;;;;19.90;73.69;99889.66;4352916;32;33599;-84
2023/09/26 02:27:03;;;;;;;16.60;9.95;;;;;;;19.89;73.68;99894.03;4345791;33;33847;-84
2023/09/26 02:29:30;;;;;;;16.95;9.32;;;;;;;19.97;73.25;99886.03;4356738;32;34641;-84
2023/09/26 02:31:58;;;;;;;17.45;9.30;;;;;;;20.00;73.00;99890.38;4356675;32;34014;-83
2023/09/26 02:34:25;;;;;;;14.98;8.73;;;;;;;19.90;73.40;99893.13;4371241;32;34189;-88
2023/09/26 02:36:53;;;;;;;14.57;9.35;;;;;;;20.15;72.19;99892.78;4360601;32;34283;-84
2023/09/26 02:39:21;;;;;;;14.40;9.10;;;;;;;20.13;72.03;99891.94;4360629;32;33240;-84
2023/09/26 02:41:48;;;;;;;14.18;9.55;;;;;;;20.09;72.29;99895.53;4359904;32;33685;-84
2023/09/26 02:44:16;;;;;;;15.43;10.07;;;;;;;20.04;72.08;99899.97;4358597;32;33912;-83
2023/09/26 02:46:44;;;;;;;14.32;10.00;;;;;;;19.95;72.60;99897.47;4345770;33;33696;-83
2023/09/26 02:49:11;;;;;;;16.62;9.65;;;;;;;19.95;72.89;99900.09;4349431;32;33607;-82
2023/09/26 02:51:39;;;;;;;18.55;9.02;;;;;;;19.97;72.63;99900.97;4352084;32;34888;-85
2023/09/26 02:54:07;;;;;;;14.70;9.10;;;;;;;19.89;72.97;99893.19;4373732;32;34768;-84
2023/09/26 02:56:35;;;;;;;13.48;9.30;;;;;;;20.10;72.18;99899.88;4359291;32;34995;-82
2023/09/26 02:59:03;;;;;;;13.02;8.88;;;;;;;20.22;71.40;99897.06;4369005;32;34486;-83
2023/09/26 03:01:31;;;;;;;14.25;9.48;;;;;;;20.30;70.89;99892.53;4353348;32;35128;-84
2023/09/26 03:04:17;;;;;;;13.50;8.93;;;;;;;20.04;71.96;99894.69;4346584;32;34879;-83
2023/09/26 03:06:45;;;;;;;12.85;8.90;;;;;;;20.11;71.94;99897.22;4345739;33;34149;-84
2023/09/26 03:09:15;;;;;;;17.42;10.35;;;;;;;20.03;72.17;99903.50;4345340;32;33824;-83
2023/09/26 03:11:43;;;;;;;15.00;9.75;;;;;;;20.19;71.88;99897.09;4357467;32;34681;-83
2023/09/26 03:14:11;;;;;;;14.25;9.65;;;;;;;20.14;71.67;99898.94;4358387;32;34179;-84
2023/09/26 03:16:39;;;;;;;12.85;9.32;;;;;;;20.24;71.28;99891.78;4360351;32;33923;-83
2023/09/26 03:19:08;;;;;;;14.87;9.57;;;;;;;20.41;70.36;99890.62;4351072;32;34587;-83
2023/09/26 03:21:35;;;;;;;17.87;9.05;;;;;;;20.25;71.05;99902.28;4344109;32;34292;-82
2023/09/26 03:24:03;;;;;;;17.48;10.32;;;;;;;20.46;70.00;99884.44;4353274;32;33992;-82
2023/09/26 03:26:30;;;;;;;15.07;8.35;;;;;;;20.18;71.38;99903.28;4375114;32;34929;-83
2023/09/26 03:28:58;;;;;;;13.35;9.07;;;;;;;20.20;71.40;99898.88;4367040;32;34392;-83
2023/09/26 03:31:25;;;;;;;14.07;9.38;;;;;;;20.38;70.30;99893.31;4348818;32;33686;-83
2023/09/26 03:33:53;;;;;;;13.00;8.70;;;;;;;20.25;71.18;99896.16;4350984;32;34147;-83
2023/09/26 03:36:21;;;;;;;15.88;9.73;;;;;;;20.36;70.64;99891.59;4371419;32;34123;-84
2023/09/26 03:38:49;;;;;;;13.98;9.00;;;;;;;20.24;70.99;99900.56;4368677;32;33433;-83
2023/09/26 03:41:16;;;;;;;13.35;8.95;;;;;;;20.44;70.22;99904.66;4359682;32;34740;-81
2023/09/26 03:43:44;;;;;;;14.70;9.52;;;;;;;20.46;69.94;99903.75;4354732;32;34160;-83
2023/09/26 03:46:11;;;;;;;14.30;8.98;;;;;;;20.45;69.97;99896.72;4366812;32;33965;-82
2023/09/26 03:48:39;;;;;;;14.25;9.50;;;;;;;20.27;70.63;99895.25;4347805;32;33378;-82
2023/09/26 03:51:13;;;;;;;14.38;9.80;;;;;;;20.36;70.70;99895.09;4358261;32;33675;-82
2023/09/26 03:53:42;;;;;;;14.70;9.73;;;;;;;20.02;71.88;99901.75;4351584;32;35102;-82
2023/09/26 03:56:10;;;;;;;16.73;9.40;;;;;;;20.14;71.20;99901.56;4345322;33;33903;-84
2023/09/26 03:58:37;;;;;;;13.25;9.25;;;;;;;20.26;70.76;99898.75;4345262;32;33857;-83
2023/09/26 04:01:11;;;;;;;14.25;9.20;;;;;;;20.17;70.74;99902.41;4353691;32;33675;-83
2023/09/26 04:03:42;;;;;;;13.82;9.98;;;;;;;20.01;71.78;99895.63;4345147;32;35066;-82
2023/09/26 04:06:09;;;;;;;20.70;9.70;;;;;;;20.23;70.85;99898.81;4357972;32;35092;-82
2023/09/26 04:08:37;;;;;;;12.77;9.13;;;;;;;20.37;70.21;99890.69;4358354;32;33444;-83
2023/09/26 04:11:04;;;;;;;13.73;9.88;;;;;;;20.06;71.32;99892.94;4371261;32;34401;-83
2023/09/26 04:13:32;;;;;;;15.27;10.18;;;;;;;20.33;70.06;99891.66;4373708;32;34068;-83
2023/09/26 04:16:04;;;;;;;13.93;9.02;;;;;;;20.29;70.23;99893.44;4372702;32;33981;-82
2023/09/26 04:18:32;;;;;;;13.98;9.88;;;;;;;20.26;70.36;99901.37;4345892;32;33601;-83
2023/09/26 04:21:03;;;;;;;15.02;9.25;;;;;;;20.37;69.77;99896.84;4347147;32;33858;-82
2023/09/26 04:23:35;;;;;;;15.73;10.13;;;;;;;20.10;71.07;99895.47;4353546;32;34036;-84
2023/09/26 04:26:14;;;;;;;15.32;10.10;;;;;;;20.21;70.51;99897.09;4348433;32;34789;-87
2023/09/26 04:28:45;;;;;;;16.30;9.80;;;;;;;20.06;71.08;99903.47;4352355;32;34675;-83
2023/09/26 04:31:13;;;;;;;17.27;9.40;;;;;;;20.19;70.46;99905.00;4348265;32;33643;-83
2023/09/26 04:33:41;;;;;;;13.32;8.82;;;;;;;20.21;70.28;99903.22;4356420;32;34691;-84
2023/09/26 04:36:09;;;;;;;13.93;9.65;;;;;;;20.22;70.22;99910.22;4355766;32;34065;-81
2023/09/26 04:38:37;;;;;;;19.52;9.90;;;;;;;20.06;70.45;99912.22;4347171;32;33482;-82
2023/09/26 04:41:05;;;;;;;13.40;9.57;;;;;;;20.04;70.77;99910.50;4350828;32;34023;-83
2023/09/26 04:43:33;;;;;;;16.50;10.48;;;;;;;20.15;70.27;99911.22;4352233;32;35028;-84
2023/09/26 04:46:01;;;;;;;13.55;8.88;;;;;;;20.41;69.26;99910.81;4362569;32;34092;-84
2023/09/26 04:48:28;;;;;;;14.70;9.05;;;;;;;20.10;70.42;99920.94;4359766;32;33846;-84
2023/09/26 04:50:56;;;;;;;12.85;9.15;;;;;;;19.95;70.93;99915.88;4349909;32;33731;-83
2023/09/26 04:53:23;;;;;;;15.73;9.68;;;;;;;20.09;70.26;99920.06;4354324;32;33712;-82
2023/09/26 04:55:51;;;;;;;14.32;10.20;;;;;;;20.27;69.41;99915.44;4347119;32;34299;-83
2023/09/26 04:58:19;;;;;;;16.95;9.13;;;;;;;20.14;70.06;99927.91;4349445;32;33604;-81
2023/09/26 05:00:46;;;;;;;14.75;10.27;;;;;;;20.26;69.56;99917.19;4349178;32;34384;-82
2023/09/26 05:03:14;;;;;;;12.68;9.90;;;;;;;20.25;69.46;99925.13;4351506;32;34116;-84
2023/09/26 05:05:43;;;;;;;19.67;10.05;;;;;;;20.09;70.12;99929.75;4372611;32;34740;-85
2023/09/26 05:08:10;;;;;;;13.62;9.13;;;;;;;20.22;69.70;99923.41;4371562;32;33422;-84
2023/09/26 05:10:38;;;;;;;19.10;10.02;;;;;;;20.24;69.64;99926.88;4360206;32;34327;-84
2023/09/26 05:13:06;;;;;;;13.43;9.13;;;;;;;20.42;68.37;99929.25;4353164;32;34204;-85
2023/09/26 05:15:35;;;;;;;12.70;9.48;;;;;;;20.52;68.35;99924.72;4348868;32;33817;-85
2023/09/26 05:18:03;;;;;;;15.13;9.70;;;;;;;20.54;68.24;99922.09;4354678;32;33865;-86
2023/09/26 05:20:30;;;;;;;14.60;9.95;;;;;;;20.49;68.24;99915.97;4360564;32;33689;-85
2023/09/26 05:23:00;;;;;;;15.88;9.75;;;;;;;20.79;67.38;99918.13;4350066;32;34842;-84
2023/09/26 05:25:28;;;;;;;15.20;9.18;;;;;;;20.64;68.03;99915.75;4347364;32;34729;-84
2023/09/26 05:27:56;;;;;;;12.80;8.95;;;;;;;20.65;67.71;99922.78;4360604;32;34038;-84
2023/09/26 05:30:23;;;;;;;13.35;9.10;;;;;;;20.54;68.11;99922.09;4355165;32;33341;-83
2023/09/26 05:32:51;;;;;;;16.67;9.18;;;;;;;20.58;68.00;99919.38;4372058;32;33942;-82
2023/09/26 05:35:24;;;;;;;14.27;9.18;;;;;;;20.87;67.11;99926.81;4368844;32;34369;-85
2023/09/26 05:37:52;;;;;;;17.48;10.13;;;;;;;20.69;67.69;99932.37;4359433;32;33515;-85
2023/09/26 05:40:20;;;;;;;14.65;9.45;;;;;;;20.79;67.52;99927.81;4359664;32;33550;-85
2023/09/26 05:42:47;;;;;;;14.82;9.35;;;;;;;20.84;67.05;99928.62;4378780;32;34896;-85
2023/09/26 05:45:16;;;;;;;16.75;9.32;;;;;;;20.96;66.83;99931.03;4363499;32;34283;-85
2023/09/26 05:47:44;;;;;;;13.88;9.27;;;;;;;20.94;66.17;99926.69;4357685;32;33675;-85
2023/09/26 05:50:12;;;;;;;14.93;9.07;;;;;;;20.97;66.27;99931.91;4345784;32;33920;-86
2023/09/26 05:52:39;;;;;;;12.37;8.18;;;;;;;20.87;66.53;99937.34;4346056;32;34208;-85
2023/09/26 05:55:07;;;;;;;11.80;8.65;;;;;;;20.74;67.10;99930.53;4354684;32;34252;-86
2023/09/26 05:57:35;;;;;;;14.30;9.20;;;;;;;20.73;66.74;99936.72;4374243;32;34450;-86
2023/09/26 06:00:05;;;;;;;14.00;8.25;;;;;;;20.97;66.37;99927.50;4353616;32;32941;-86
2023/09/26 06:02:36;;;;;;;13.98;8.75;;;;;;;21.10;66.00;99933.41;4361014;32;33867;-83
2023/09/26 06:05:04;;;;;;;14.73;8.75;;;;;;;21.01;65.99;99937.09;4358781;32;33872;-84
2023/09/26 06:07:32;;;;;;;17.92;8.93;;;;;;;20.87;66.15;99936.44;4356999;32;34383;-85
2023/09/26 06:09:59;;;;;;;13.62;8.98;;;;;;;20.76;66.88;99939.28;4374452;32;34553;-84
2023/09/26 06:12:40;;;;;;;15.13;9.30;;;;;;;20.55;67.55;99929.09;4359553;32;33356;-85
2023/09/26 06:15:09;;;;;;;14.07;9.30;;;;;;;20.73;66.98;99934.06;4361184;32;34953;-85
2023/09/26 06:17:37;;;;;;;18.70;8.98;;;;;;;20.76;67.07;99931.38;4364939;32;34158;-84
2023/09/26 06:20:08;;;;;;;15.40;9.05;;;;;;;20.83;66.79;99940.91;4350553;32;34577;-85
2023/09/26 06:22:36;;;;;;;16.65;9.27;;;;;;;21.10;65.54;99934.31;4371888;32;34039;-85
2023/09/26 06:25:05;;;;;;;14.43;8.77;;;;;;;21.01;65.48;99934.47;4364740;32;34316;-85
2023/09/26 06:27:37;;;;;;;14.00;8.70;;;;;;;21.11;65.17;99919.34;4359241;32;34892;-85
2023/09/26 06:30:05;;;;;;;12.93;8.77;;;;;;;20.64;67.50;99927.16;4359302;32;34445;-85
2023/09/26 06:32:35;;;;;;;17.25;8.93;;;;;;;21.00;66.11;99929.22;4366552;32;33749;-85
2023/09/26 06:35:03;;;;;;;17.02;9.50;;;;;;;21.12;65.65;99921.09;4357773;32;35076;-85
2023/09/26 06:37:31;;;;;;;12.45;8.90;;;;;;;21.34;64.44;99922.47;4345079;32;33919;-85
2023/09/26 06:40:06;;;;;;;13.60;9.85;;;;;;;21.07;65.42;99930.88;4348442;32;33620;-87
2023/09/26 06:42:34;;;;;;;16.30;9.07;;;;;;;20.95;66.17;99931.06;4345795;33;34108;-86
2023/09/26 06:45:06;;;;;;;15.57;9.20;;;;;;;21.03;65.14;99923.91;4354121;32;34169;-85
2023/09/26 06:47:33;;;;;;;14.35;9.38;;;;;;;21.25;65.17;99930.53;4355427;32;33480;-86
2023/09/26 06:50:02;;;;;;;14.15;9.30;;;;;;;21.30;64.78;99925.16;4355220;32;34782;-87
2023/09/26 06:52:31;;;;;;;14.60;8.88;;;;;;;21.23;64.68;99929.66;4346414;32;33656;-86
2023/09/26 06:54:58;;;;;;;13.95;8.90;;;;;;;20.91;65.85;99932.91;4366161;32;34249;-86
2023/09/26 06:57:27;;;;;;;16.77;9.38;;;;;;;20.83;66.11;99935.62;4375498;32;33572;-86
2023/09/26 06:59:55;;;;;;;15.23;8.27;;;;;;;20.87;65.45;99931.19;4363856;32;34071;-86
2023/09/26 07:02:24;;;;;;;13.55;9.07;;;;;;;21.28;64.53;99927.81;4360622;32;34169;-86
2023/09/26 07:04:54;;;;;;;14.90;9.18;;;;;;;21.46;64.16;99931.03;4356848;32;33859;-86
2023/09/26 07:07:23;;;;;;;12.75;9.10;;;;;;;21.50;64.31;99927.44;4375370;32;33847;-86
2023/09/26 07:09:51;;;;;;;14.23;9.38;;;;;;;21.61;63.82;99931.59;4351796;32;33716;-86
2023/09/26 07:12:18;;;;;;;14.75;8.90;;;;;;;21.50;63.93;99930.09;4345339;32;34209;-86
2023/09/26 07:14:47;;;;;;;18.08;8.95;;;;;;;21.23;63.98;99934.09;4346301;32;34339;-86
2023/09/26 07:17:15;;;;;;;17.62;9.98;;;;;;;21.46;63.60;99941.59;4354508;32;33470;-87
2023/09/26 07:19:42;;;;;;;15.77;9.50;;;;;;;21.50;63.88;99933.59;4345593;33;33571;-86
2023/09/26 07:22:10;;;;;;;13.85;9.48;;;;;;;21.59;62.58;99932.53;4350024;32;33785;-87
2023/09/26 07:24:38;;;;;;;14.07;9.27;;;;;;;21.20;64.73;99924.44;4351162;32;33851;-85
2023/09/26 07:27:19;;;;;;;12.80;8.98;;;;;;;21.44;64.26;99935.47;4345437;32;33588;-85
2023/09/26 07:29:47;;;;;;;17.02;9.63;;;;;;;21.74;62.58;99937.50;4354981;32;33987;-86
2023/09/26 07:32:15;;;;;;;18.30;9.55;;;;;;;21.45;64.04;99940.72;4373859;32;33848;-83
2023/09/26 07:34:43;;;;;;;12.15;8.95;;;;;;;21.56;64.03;99945.81;4366187;32;34358;-86
2023/09/26 07:37:11;;;;;;;15.07;9.45;;;;;;;21.71;62.95;99945.50;4351996;32;33478;-87
2023/09/26 07:39:41;;;;;;;16.25;9.13;;;;;;;21.96;62.60;99947.59;4352554;32;33600;-86
2023/09/26 07:42:09;;;;;;;13.85;8.80;;;;;;;21.75;63.25;99954.22;4371971;32;33813;-85
2023/09/26 07:44:36;;;;;;;20.35;9.00;;;;;;;21.76;63.52;99959.47;4346985;32;34069;-86
2023/09/26 07:47:04;;;;;;;14.80;8.88;;;;;;;21.92;62.58;99952.09;4359975;32;33868;-85
2023/09/26 07:49:32;;;;;;;18.70;10.23;;;;;;;21.73;62.88;99964.78;4350500;32;34683;-85
2023/09/26 07:52:00;;;;;;;18.25;9.30;;;;;;;21.84;62.72;99962.81;4345175;33;34265;-85
2023/09/26 07:54:27;;;;;;;15.23;9.50;;;;;;;22.10;62.77;99961.41;4350179;32;34198;-86
2023/09/26 07:56:55;;;;;;;15.95;9.00;;;;;;;22.21;61.67;99963.84;4357789;32;34508;-87
2023/09/26 07:59:22;;;;;;;11.70;8.93;;;;;;;22.04;63.12;99959.75;4360715;32;33496;-85
2023/09/26 08:01:50;;;;;;;20.75;10.25;;;;;;;22.54;61.34;99965.72;4374283;32;35103;-86
2023/09/26 08:04:18;;;;;;;16.25;9.25;;;;;;;22.88;60.22;99961.38;4373565;32;35083;-84
2023/09/26 08:06:45;;;;;;;24.80;9.70;;;;;;;22.98;59.89;99966.44;4374663;32;32871;-87
2023/09/26 08:09:13;;;;;;;17.05;9.93;;;;;;;22.58;61.31;99961.22;4366033;32;34577;-84
2023/09/26 08:11:41;;;;;;;16.98;9.98;;;;;;;23.03;60.12;99969.84;4359976;32;34617;-87
2023/09/26 08:14:08;;;;;;;14.82;9.57;;;;;;;23.10;59.54;99973.19;4359760;32;34920;-85
2023/09/26 08:16:36;;;;;;;15.00;9.50;;;;;;;23.11;59.88;99974.03;4373486;32;33700;-88
2023/09/26 08:19:04;;;;;;;15.48;9.45;;;;;;;23.05;60.64;99964.50;4374724;32;34559;-84
2023/09/26 08:21:31;;;;;;;15.60;10.15;;;;;;;23.22;59.23;99972.00;4374586;32;34912;-83
2023/09/26 08:23:59;;;;;;;18.52;9.73;;;;;;;22.77;60.53;99961.66;4375603;32;34741;-85
2023/09/26 08:26:26;;;;;;;19.42;9.85;;;;;;;22.74;60.80;99956.44;4376633;32;33253;-86
2023/09/26 08:28:54;;;;;;;14.43;10.43;;;;;;;22.83;61.86;99959.72;4368931;32;33540;-85
2023/09/26 08:31:21;;;;;;;16.60;9.80;;;;;;;23.10;60.84;99967.03;4361030;32;35226;-84
2023/09/26 08:33:49;;;;;;;18.10;10.15;;;;;;;22.39;61.95;99962.53;4361651;32;34134;-86
2023/09/26 08:36:19;;;;;;;14.27;9.50;;;;;;;23.11;61.06;99964.34;4361512;32;33322;-85
2023/09/26 08:38:49;;;;;;;13.30;9.30;;;;;;;23.31;60.38;99969.97;4361271;32;33796;-83
2023/09/26 08:41:18;;;;;;;15.60;9.50;;;;;;;23.57;60.12;99964.91;4360260;32;33372;-84
2023/09/26 08:43:47;;;;;;;18.15;9.63;;;;;;;23.57;58.12;99962.25;4349686;32;34884;-85
2023/09/26 08:46:14;;;;;;;14.40;8.65;;;;;;;23.47;57.85;99964.28;4345561;32;33682;-86
2023/09/26 08:48:43;;;;;;;17.50;9.05;;;;;;;23.67;57.73;99959.31;4346595;33;33852;-87
2023/09/26 08:51:11;;;;;;;16.95;9.80;;;;;;;23.68;59.19;99957.56;4345138;33;34240;-87
2023/09/26 08:53:38;;;;;;;14.52;9.07;;;;;;;24.17;57.54;99951.69;4346984;32;34858;-87
2023/09/26 08:56:06;;;;;;;16.30;8.90;;;;;;;24.23;57.48;99954.13;4369635;32;34399;-85
2023/09/26 08:58:34;;;;;;;18.00;8.80;;;;;;;24.02;55.46;99945.06;4349188;32;34760;-85
2023/09/26 09:01:02;;;;;;;13.62;8.45;;;;;;;23.95;55.95;99953.25;4359684;32;34973;-86
2023/09/26 09:03:30;;;;;;;13.23;8.35;;;;;;;24.15;55.14;99953.50;4360131;32;34140;-86
2023/09/26 09:05:58;;;;;;;15.93;8.65;;;;;;;23.87;55.18;99957.91;4359036;32;33574;-86
2023/09/26 09:08:25;;;;;;;15.20;8.63;;;;;;;23.42;55.82;99953.81;4370317;32;34885;-85
2023/09/26 09:10:54;;;;;;;15.55;8.77;;;;;;;23.60;55.93;99954.19;4361038;32;34256;-86
2023/09/26 09:13:32;;;;;;;14.93;8.80;;;;;;;23.71;56.68;99950.38;4360934;32;34277;-87
2023/09/26 09:16:18;;;;;;;17.10;8.70;;;;;;;24.06;55.76;99942.34;4359923;32;33356;-86
2023/09/26 09:18:50;;;;;;;13.35;8.68;;;;;;;23.68;55.34;99949.63;4360903;32;33488;-86
2023/09/26 09:21:19;;;;;;;13.68;9.18;;;;;;;24.15;54.44;99940.25;4360025;32;34152;-86
2023/09/26 09:23:50;;;;;;;13.07;8.63;;;;;;;24.36;54.43;99938.75;4361161;32;34824;-87
2023/09/26 09:26:20;;;;;;;12.90;8.63;;;;;;;24.50;54.41;99946.28;4361176;32;33739;-85
2023/09/26 09:28:51;;;;;;;17.02;9.40;;;;;;;24.24;54.44;99937.34;4361211;32;33696;-86
2023/09/26 09:31:20;;;;;;;17.33;8.75;;;;;;;24.23;54.83;99947.97;4361210;32;35030;-85
2023/09/26 09:33:52;;;;;;;12.98;8.85;;;;;;;24.44;54.71;99941.19;4361224;32;34352;-85
2023/09/26 09:36:19;;;;;;;16.60;7.97;;;;;;;24.68;53.99;99942.16;4360577;32;33642;-86
2023/09/26 09:38:47;;;;;;;18.00;8.43;;;;;;;24.77;52.47;99939.19;4360041;32;33060;-86
2023/09/26 09:41:15;;;;;;;15.10;8.50;;;;;;;24.99;52.27;99929.59;4361192;32;34169;-87
2023/09/26 09:43:42;;;;;;;12.35;7.53;;;;;;;24.90;51.68;99923.75;4361081;32;34367;-87
2023/09/26 09:46:11;;;;;;;12.63;8.13;;;;;;;24.80;51.59;99927.63;4360846;32;33339;-86
2023/09/26 09:48:44;;;;;;;13.65;7.57;;;;;;;24.76;50.54;99924.22;4371799;32;33899;-89
2023/09/26 09:51:13;;;;;;;17.08;7.80;;;;;;;24.85;51.47;99920.38;4359664;32;33937;-87
2023/09/26 09:53:43;;;;;;;12.18;7.90;;;;;;;25.10;51.08;99917.81;4359829;32;34339;-87
2023/09/26 09:56:18;;;;;;;15.57;7.78;;;;;;;25.06;50.91;99914.34;4372106;32;34096;-85
2023/09/26 09:58:50;;;;;;;15.13;8.52;;;;;;;25.20;49.59;99911.25;4359747;32;33906;-87
2023/09/26 10:01:22;;;;;;;15.45;7.80;;;;;;;25.59;48.77;99905.41;4360975;32;34698;-85
2023/09/26 10:03:51;;;;;;;13.27;7.90;;;;;;;25.56;48.31;99913.50;4360800;32;34900;-86
2023/09/26 10:06:20;;;;;;;15.20;7.20;;;;;;;25.29;48.32;99904.75;4361416;32;33568;-85
2023/09/26 10:08:48;;;;;;;14.50;7.20;;;;;;;25.80;47.88;99898.44;4359787;32;34610;-85
2023/09/26 10:11:18;;;;;;;14.25;7.55;;;;;;;25.77;46.75;99901.22;4359611;32;34202;-87
2023/09/26 10:13:47;;;;;;;10.63;6.75;;;;;;;25.76;49.51;99894.16;4361265;32;33637;-86
2023/09/26 10:16:17;;;;;;;15.48;7.28;;;;;;;26.15;46.30;99886.47;4361031;32;34068;-87
2023/09/26 10:18:47;;;;;;;10.93;7.70;;;;;;;26.11;48.25;99887.53;4359415;32;33796;-87
2023/09/26 10:21:22;;;;;;;13.20;6.90;;;;;;;26.39;45.95;99871.31;4360698;32;34790;-87
2023/09/26 10:24:08;;;;;;;13.90;7.13;;;;;;;26.17;47.41;99868.66;4360915;32;33885;-87
2023/09/26 10:26:49;;;;;;;9.95;6.87;;;;;;;26.38;46.41;99883.75;4360874;32;34077;-87
2023/09/26 10:29:20;;;;;;;16.00;7.40;;;;;;;26.66;46.68;99875.50;4371500;32;33950;-87
2023/09/26 10:31:53;;;;;;;9.85;6.40;;;;;;;26.65;46.71;99875.59;4360657;32;34421;-87
2023/09/26 10:34:42;;;;;;;11.27;6.93;;;;;;;26.68;45.77;99876.34;4371752;32;33991;-87
2023/09/26 10:37:29;;;;;;;12.35;7.07;;;;;;;26.97;45.60;99874.19;4359671;32;33380;-87
2023/09/26 10:39:57;;;;;;;14.40;7.15;;;;;;;26.94;43.87;99866.38;4360709;32;33873;-87
2023/09/26 10:42:25;;;;;;;12.88;6.70;;;;;;;26.77;44.87;99866.22;4360818;32;34116;-86
2023/09/26 10:45:13;;;;;;;12.20;6.72;;;;;;;27.09;43.20;99862.19;4360607;32;34044;-86
2023/09/26 10:47:41;;;;;;;9.95;6.15;;;;;;;26.91;44.01;99854.06;4358899;32;33095;-86
2023/09/26 10:50:13;;;;;;;11.63;5.93;;;;;;;26.74;42.50;99864.56;4360667;32;33968;-87
2023/09/26 10:52:46;;;;;;;10.23;6.12;;;;;;;26.85;41.97;99850.78;4359552;32;34205;-86
2023/09/26 10:55:34;;;;;;;11.68;5.60;;;;;;;27.30;41.82;99863.03;4369442;32;34599;-86
2023/09/26 10:58:03;;;;;;;12.37;5.35;;;;;;;27.09;40.93;99865.72;4361211;32;33866;-87
2023/09/26 11:00:30;;;;;;;14.30;5.85;;;;;;;26.94;41.63;99861.06;4360921;32;33907;-87
2023/09/26 11:02:58;;;;;;;9.30;5.22;;;;;;;27.11;43.27;99853.22;4360503;32;33691;-86
2023/09/26 11:05:45;;;;;;;11.98;6.07;;;;;;;27.52;39.15;99842.50;4360564;32;33917;-88
2023/09/26 11:08:13;;;;;;;8.40;5.43;;;;;;;27.28;38.42;99849.81;4360623;32;33207;-86
2023/09/26 11:10:48;;;;;;;10.60;5.30;;;;;;;27.36;37.49;99847.66;4360712;32;34712;-87
2023/09/26 11:13:17;;;;;;;17.45;5.40;;;;;;;27.50;38.10;99844.34;4360702;32;34033;-87
2023/09/26 11:15:45;;;;;;;8.25;4.90;;;;;;;27.57;38.90;99843.13;4359738;32;34233;-86
2023/09/26 11:18:13;;;;;;;8.68;4.90;;;;;;;27.79;38.46;99837.69;4360746;32;33673;-86
2023/09/26 11:20:40;;;;;;;11.65;4.82;;;;;;;27.58;37.41;99838.69;4359465;32;34252;-87
2023/09/26 11:23:39;;;;;;;10.45;5.25;;;;;;;27.50;38.86;99832.84;4360703;32;33994;-87
2023/09/26 11:26:08;;;;;;;14.70;6.07;;;;;;;27.54;38.08;99829.97;4359696;32;33861;-87
2023/09/26 11:28:36;;;;;;;11.32;6.00;;;;;;;27.60;37.34;99820.81;4360793;32;33745;-86
2023/09/26 11:31:04;;;;;;;13.18;6.57;;;;;;;27.75;38.21;99824.59;4359468;32;34971;-86
2023/09/26 11:33:32;;;;;;;14.65;6.05;;;;;;;27.86;38.88;99822.28;4359422;32;33862;-87